Time;durP1;ratioP1;P1;durP2;ratioP2;P2;SDS_P1;SDS_P2;PMS_P1;PMS_P2;Temp;Humidity;BMP_temperature;BMP_pressure;BME280_temperature;BME280_humidity;BME280_pressure;Samples;Min_cycle;Max_cycle;Signal;HPM_P1;HPM_P2
2021/10/07 00:00:57;;;;;;;14.00;3.03;;;13.20;99.90;;;;;;2090283;28;20032;-65
2021/10/07 00:01:58;;;;;;;16.55;2.80;;;13.20;99.90;;;;;;2094560;28;20045;-65
2021/10/07 00:02:59;;;;;;;20.30;2.75;;;13.20;99.90;;;;;;2103096;28;20020;-65
2021/10/07 00:03:59;;;;;;;12.85;2.63;;;13.30;99.90;;;;;;2111687;28;20016;-66
2021/10/07 00:05:00;;;;;;;14.05;2.67;;;13.30;99.90;;;;;;2094738;28;20036;-65
2021/10/07 00:06:01;;;;;;;14.30;2.38;;;13.30;99.90;;;;;;2094854;28;20605;-66
2021/10/07 00:07:01;;;;;;;17.60;2.72;;;13.30;99.90;;;;;;2095507;28;20060;-65
2021/10/07 00:08:03;;;;;;;13.40;2.55;;;13.30;99.90;;;;;;2095324;28;20048;-65
2021/10/07 00:09:06;;;;;;;9.98;2.63;;;13.30;99.90;;;;;;2092028;28;20021;-65
2021/10/07 00:10:07;;;;;;;10.27;2.08;;;13.30;99.90;;;;;;2094542;28;20013;-65
2021/10/07 00:11:11;;;;;;;8.32;2.20;;;13.30;99.90;;;;;;2094428;28;20495;-65
2021/10/07 00:12:12;;;;;;;10.05;1.90;;;13.30;99.90;;;;;;2094909;28;20017;-65
2021/10/07 00:13:14;;;;;;;10.57;2.58;;;13.30;99.90;;;;;;2091384;28;20049;-66
2021/10/07 00:14:15;;;;;;;16.75;3.42;;;13.30;99.90;;;;;;2089124;28;20021;-65
2021/10/07 00:15:16;;;;;;;14.38;2.00;;;13.30;99.90;;;;;;2089551;28;20053;-65
2021/10/07 00:16:17;;;;;;;13.43;2.92;;;13.30;99.90;;;;;;2089900;28;20013;-66
2021/10/07 00:17:18;;;;;;;11.82;2.55;;;13.30;99.90;;;;;;2082999;28;20156;-65
2021/10/07 00:18:19;;;;;;;13.43;2.88;;;13.30;99.90;;;;;;2087545;28;20021;-65
2021/10/07 00:19:20;;;;;;;9.85;2.22;;;13.30;99.90;;;;;;2089391;28;20021;-66
2021/10/07 00:20:20;;;;;;;10.60;2.47;;;13.30;99.90;;;;;;2089961;28;20021;-65
2021/10/07 00:21:21;;;;;;;16.45;3.25;;;13.30;99.90;;;;;;2089739;28;20025;-65
2021/10/07 00:22:22;;;;;;;17.40;3.55;;;13.30;99.90;;;;;;2090053;28;20029;-65
2021/10/07 00:23:26;;;;;;;14.18;2.78;;;13.30;99.90;;;;;;2087037;28;20033;-65
2021/10/07 00:24:27;;;;;;;11.52;2.47;;;13.30;99.90;;;;;;2084944;28;20024;-65
2021/10/07 00:25:27;;;;;;;17.70;2.28;;;13.30;99.90;;;;;;2088350;28;20029;-65
2021/10/07 00:26:28;;;;;;;8.77;2.35;;;13.30;99.90;;;;;;2084937;28;20017;-65
2021/10/07 00:27:29;;;;;;;11.63;2.20;;;13.30;99.90;;;;;;2089933;28;20028;-66
2021/10/07 00:28:32;;;;;;;10.02;2.50;;;13.30;99.90;;;;;;2089686;28;20017;-65
2021/10/07 00:29:44;;;;;;;10.52;2.22;;;13.30;99.90;;;;;;2089628;28;20025;-65
2021/10/07 00:30:46;;;;;;;10.32;2.38;;;13.30;99.90;;;;;;2090161;28;20428;-66
2021/10/07 00:31:50;;;;;;;10.23;2.20;;;13.30;99.90;;;;;;2089769;28;20638;-65
2021/10/07 00:39:22;;;;;;;17.02;3.33;;;13.30;99.90;;;;;;2084082;28;20029;-65
2021/10/07 00:40:23;;;;;;;11.85;2.40;;;13.30;99.90;;;;;;2083358;28;20033;-65
2021/10/07 00:41:24;;;;;;;18.33;2.63;;;13.30;99.90;;;;;;2079533;28;20017;-65
2021/10/07 00:42:24;;;;;;;14.55;2.33;;;13.30;99.90;;;;;;2085821;28;20104;-65
2021/10/07 00:43:25;;;;;;;15.93;2.58;;;13.30;99.90;;;;;;2088905;28;20072;-66
2021/10/07 00:44:31;;;;;;;11.60;2.63;;;13.30;99.90;;;;;;2086103;28;20041;-65
2021/10/07 00:45:32;;;;;;;7.35;2.70;;;13.30;99.90;;;;;;2085169;28;20043;-65
2021/10/07 00:46:52;;;;;;;15.98;2.58;;;13.30;99.90;;;;;;2086756;28;20029;-65
2021/10/07 00:47:52;;;;;;;12.80;2.55;;;13.30;99.90;;;;;;2085840;28;20035;-65
2021/10/07 00:48:53;;;;;;;13.35;2.38;;;13.30;99.90;;;;;;2086543;28;20028;-65
2021/10/07 00:49:54;;;;;;;10.25;2.30;;;13.30;99.90;;;;;;2096194;28;20017;-65
2021/10/07 00:50:54;;;;;;;11.30;2.30;;;13.30;99.90;;;;;;2091717;28;20017;-65
2021/10/07 00:51:55;;;;;;;13.00;2.50;;;13.30;99.90;;;;;;2081266;28;20034;-65
2021/10/07 00:52:57;;;;;;;10.70;2.13;;;13.30;99.90;;;;;;2089347;28;20484;-66
2021/10/07 00:53:58;;;;;;;10.20;2.38;;;13.30;99.90;;;;;;2089249;28;20029;-65
2021/10/07 00:54:59;;;;;;;8.15;2.22;;;13.30;99.90;;;;;;2089686;28;20025;-65
2021/10/07 00:56:01;;;;;;;9.88;2.17;;;13.30;99.90;;;;;;2089489;28;20049;-65
2021/10/07 00:57:04;;;;;;;12.68;2.20;;;13.30;99.90;;;;;;2088992;28;20112;-65
2021/10/07 00:58:05;;;;;;;13.23;2.40;;;13.30;99.90;;;;;;2088952;28;20028;-65
2021/10/07 00:59:06;;;;;;;11.90;2.28;;;13.30;99.90;;;;;;2086932;28;20523;-65
2021/10/07 01:00:07;;;;;;;8.73;2.08;;;13.30;99.90;;;;;;2088174;28;20036;-65
2021/10/07 01:01:08;;;;;;;16.25;2.45;;;13.30;99.90;;;;;;2085914;28;20021;-65
2021/10/07 01:02:09;;;;;;;12.52;2.17;;;13.40;99.90;;;;;;2089326;28;20032;-65
2021/10/07 01:03:10;;;;;;;9.55;2.53;;;13.40;99.90;;;;;;2089488;28;20524;-65
2021/10/07 01:04:11;;;;;;;11.82;2.25;;;13.30;99.90;;;;;;2089235;28;20055;-65
2021/10/07 01:05:12;;;;;;;13.93;2.00;;;13.40;99.90;;;;;;2089797;28;20017;-65
2021/10/07 01:06:12;;;;;;;14.07;2.50;;;13.40;99.90;;;;;;2087755;28;20033;-65
2021/10/07 01:07:16;;;;;;;11.27;2.65;;;13.40;99.90;;;;;;2087885;28;20025;-65
2021/10/07 01:08:16;;;;;;;9.70;2.30;;;13.40;99.90;;;;;;2088647;28;20074;-65
2021/10/07 01:09:17;;;;;;;11.90;1.92;;;13.40;99.90;;;;;;2088562;28;20075;-65
2021/10/07 01:10:18;;;;;;;9.98;2.78;;;13.30;99.90;;;;;;2097182;28;20488;-66
2021/10/07 01:11:19;;;;;;;10.48;2.55;;;13.30;99.90;;;;;;2105309;28;20024;-65
2021/10/07 01:12:19;;;;;;;14.98;2.70;;;13.40;99.90;;;;;;2079943;28;20060;-65
2021/10/07 01:13:20;;;;;;;11.68;2.33;;;13.30;99.90;;;;;;2081088;28;20024;-65
2021/10/07 01:14:43;;;;;;;12.15;2.20;;;13.30;99.90;;;;;;2082495;28;20029;-65
2021/10/07 01:15:44;;;;;;;;;;;13.30;99.90;;;;;;2087443;28;20041;-65
2021/10/07 01:16:44;;;;;;;15.18;2.17;;;13.30;99.90;;;;;;2089163;28;19905;-65
2021/10/07 01:17:45;;;;;;;15.40;2.35;;;13.30;99.90;;;;;;2088963;28;20032;-65
2021/10/07 01:18:47;;;;;;;7.18;2.63;;;13.30;99.90;;;;;;2089505;28;20039;-65
2021/10/07 01:19:49;;;;;;;11.23;2.35;;;13.30;99.90;;;;;;2088657;28;20526;-65
2021/10/07 01:20:50;;;;;;;14.32;2.40;;;13.30;99.90;;;;;;2078517;28;20076;-65
2021/10/07 01:21:51;;;;;;;8.23;2.20;;;13.20;99.90;;;;;;2088289;28;20025;-66
2021/10/07 01:22:51;;;;;;;8.52;2.20;;;13.20;99.90;;;;;;2089134;28;20021;-65
2021/10/07 01:23:52;;;;;;;10.45;2.40;;;13.20;99.90;;;;;;2089558;28;20017;-65
2021/10/07 01:24:53;;;;;;;9.57;2.00;;;13.20;99.90;;;;;;2088591;28;20044;-65
2021/10/07 01:25:54;;;;;;;10.20;2.10;;;13.20;99.90;;;;;;2088944;28;20048;-65
2021/10/07 01:26:55;;;;;;;11.60;2.28;;;13.20;99.90;;;;;;2088819;28;20021;-65
2021/10/07 01:27:56;;;;;;;16.60;2.55;;;13.20;99.90;;;;;;2085065;28;20108;-65
2021/10/07 01:28:56;;;;;;;11.52;2.30;;;13.20;99.90;;;;;;2088970;28;20017;-65
2021/10/07 01:30:10;;;;;;;10.25;2.40;;;13.20;99.90;;;;;;2089020;28;20512;-65
2021/10/07 01:31:12;;;;;;;16.63;2.40;;;13.20;99.90;;;;;;2088691;28;20021;-65
2021/10/07 01:32:12;;;;;;;11.25;2.03;;;13.20;99.90;;;;;;2081893;28;20440;-65
2021/10/07 01:33:13;;;;;;;9.70;1.90;;;13.20;99.90;;;;;;2083971;28;20053;-65
2021/10/07 01:34:25;;;;;;;10.32;2.25;;;13.20;99.90;;;;;;2089397;28;20028;-66
2021/10/07 01:35:26;;;;;;;10.57;2.80;;;13.20;99.90;;;;;;2088321;28;20591;-65
2021/10/07 01:36:27;;;;;;;12.23;2.47;;;13.20;99.90;;;;;;2088667;28;20017;-65
2021/10/07 01:37:28;;;;;;;8.63;2.13;;;13.20;99.90;;;;;;2083413;28;20017;-65
2021/10/07 01:38:28;;;;;;;9.07;2.40;;;13.20;99.90;;;;;;2079941;28;20025;-65
2021/10/07 01:39:29;;;;;;;13.38;2.40;;;13.20;99.90;;;;;;2088435;28;20017;-65
2021/10/07 01:40:30;;;;;;;14.57;2.20;;;13.20;99.90;;;;;;2088406;28;20053;-65
2021/10/07 01:41:31;;;;;;;14.60;2.47;;;13.20;99.90;;;;;;2089059;28;20082;-65
2021/10/07 01:42:32;;;;;;;10.05;2.30;;;13.20;99.90;;;;;;2089103;28;20464;-66
2021/10/07 01:43:33;;;;;;;12.52;2.30;;;13.20;99.90;;;;;;2089341;28;20028;-65
2021/10/07 01:44:34;;;;;;;8.23;2.25;;;13.20;99.90;;;;;;2084289;28;20120;-65
2021/10/07 01:45:35;;;;;;;9.82;2.90;;;13.20;99.90;;;;;;2082045;28;20022;-65
2021/10/07 01:46:36;;;;;;;12.63;3.28;;;13.10;99.90;;;;;;2079870;28;20145;-65
2021/10/07 01:47:36;;;;;;;7.70;2.13;;;13.20;99.90;;;;;;2080311;28;20103;-65
2021/10/07 01:48:37;;;;;;;9.50;2.33;;;13.20;99.90;;;;;;2080342;28;20025;-65
2021/10/07 01:49:38;;;;;;;12.57;2.65;;;13.20;99.90;;;;;;2077640;28;20030;-65
2021/10/07 01:50:38;;;;;;;16.85;2.80;;;13.10;99.90;;;;;;2096333;28;20365;-65
2021/10/07 01:51:39;;;;;;;10.70;2.40;;;13.10;99.90;;;;;;2088511;28;20025;-66
2021/10/07 01:52:40;;;;;;;13.43;2.90;;;13.10;99.90;;;;;;2080261;28;20026;-66
2021/10/07 01:53:41;;;;;;;16.42;2.47;;;13.10;99.90;;;;;;2081028;28;20080;-65
2021/10/07 01:54:41;;;;;;;12.30;2.80;;;13.10;99.90;;;;;;2080299;28;20488;-65
2021/10/07 01:55:42;;;;;;;8.07;2.75;;;13.00;99.90;;;;;;2077445;28;20033;-65
2021/10/07 01:56:43;;;;;;;15.95;2.90;;;13.00;99.90;;;;;;2077596;28;20036;-65
2021/10/07 01:57:44;;;;;;;8.40;2.30;;;13.00;99.90;;;;;;2080637;28;20021;-65
2021/10/07 01:58:44;;;;;;;16.88;3.03;;;13.00;99.90;;;;;;2080281;28;20124;-66
2021/10/07 01:59:45;;;;;;;9.90;2.40;;;13.00;99.90;;;;;;2080236;28;20025;-65
2021/10/07 02:00:46;;;;;;;9.07;2.33;;;12.90;99.90;;;;;;2080004;28;20059;-65
2021/10/07 02:01:47;;;;;;;8.85;2.22;;;12.90;99.90;;;;;;2080102;28;20527;-65
2021/10/07 02:02:48;;;;;;;19.60;2.42;;;12.90;99.90;;;;;;2077360;28;20029;-65
2021/10/07 02:03:48;;;;;;;10.88;2.50;;;12.90;99.90;;;;;;2079861;28;20031;-65
2021/10/07 02:04:49;;;;;;;10.20;2.20;;;12.90;99.90;;;;;;2079910;28;20021;-65
2021/10/07 02:05:50;;;;;;;19.60;3.53;;;12.90;99.90;;;;;;2080646;28;20021;-65
2021/10/07 02:06:50;;;;;;;16.90;3.05;;;12.90;99.90;;;;;;2080892;28;20444;-65
2021/10/07 02:07:51;;;;;;;10.05;2.75;;;12.90;99.90;;;;;;2080751;28;20100;-65
2021/10/07 02:08:52;;;;;;;10.70;2.63;;;12.90;99.90;;;;;;2076991;28;20523;-65
2021/10/07 02:09:52;;;;;;;12.23;2.67;;;12.90;99.90;;;;;;2080433;28;20468;-65
2021/10/07 02:10:53;;;;;;;14.93;2.78;;;12.90;99.90;;;;;;2080610;28;20504;-65
2021/10/07 02:11:54;;;;;;;14.98;2.95;;;12.90;99.90;;;;;;2080944;28;20028;-65
2021/10/07 02:12:54;;;;;;;14.85;2.70;;;12.90;99.90;;;;;;2080834;28;20053;-65
2021/10/07 02:13:55;;;;;;;8.88;3.50;;;12.90;99.90;;;;;;2080816;28;20026;-65
2021/10/07 02:14:56;;;;;;;14.68;2.58;;;12.80;99.90;;;;;;2080687;28;20034;-65
2021/10/07 02:15:58;;;;;;;9.65;2.40;;;12.80;99.90;;;;;;2078316;28;20037;-65
2021/10/07 02:16:59;;;;;;;13.48;2.83;;;12.80;99.90;;;;;;2072376;28;20053;-65
2021/10/07 02:17:59;;;;;;;10.32;2.33;;;12.80;99.90;;;;;;2075740;28;20541;-65
2021/10/07 02:19:00;;;;;;;8.88;2.40;;;12.80;99.90;;;;;;2080870;28;20032;-65
2021/10/07 02:20:02;;;;;;;8.68;2.00;;;12.80;99.90;;;;;;2080043;28;20017;-65
2021/10/07 02:21:03;;;;;;;12.93;3.08;;;12.80;99.90;;;;;;2080136;28;20104;-65
2021/10/07 02:22:04;;;;;;;10.07;2.55;;;12.80;99.90;;;;;;2080735;28;20525;-65
2021/10/07 02:23:05;;;;;;;15.60;2.63;;;12.80;99.90;;;;;;2080776;28;20013;-66
2021/10/07 02:24:06;;;;;;;10.40;2.60;;;12.90;99.90;;;;;;2077724;28;20040;-65
2021/10/07 02:25:08;;;;;;;17.55;2.72;;;12.80;99.90;;;;;;2080503;28;20033;-65
2021/10/07 02:26:08;;;;;;;13.32;2.53;;;12.80;99.90;;;;;;2080152;28;20603;-65
2021/10/07 02:27:09;;;;;;;14.80;2.28;;;12.80;99.90;;;;;;2080848;28;20059;-65
2021/10/07 02:28:10;;;;;;;13.43;2.75;;;12.80;99.90;;;;;;2080546;28;20377;-65
2021/10/07 02:29:11;;;;;;;13.50;3.22;;;12.80;99.90;;;;;;2080839;28;20383;-66
2021/10/07 02:30:15;;;;;;;12.65;2.42;;;12.80;99.90;;;;;;2077333;28;20055;-66
2021/10/07 02:31:15;;;;;;;9.82;2.45;;;12.80;99.90;;;;;;2078176;28;20025;-66
2021/10/07 02:32:16;;;;;;;10.88;2.42;;;12.80;99.90;;;;;;2080414;28;20037;-66
2021/10/07 02:33:17;;;;;;;10.80;2.10;;;12.80;99.90;;;;;;2080681;28;20056;-66
2021/10/07 02:34:18;;;;;;;11.18;2.85;;;12.80;99.90;;;;;;2080674;28;20031;-66
2021/10/07 02:35:18;;;;;;;13.40;2.55;;;12.80;99.90;;;;;;2080564;28;20024;-66
2021/10/07 02:36:19;;;;;;;7.93;2.40;;;12.90;99.90;;;;;;2079510;28;20032;-66
2021/10/07 02:37:20;;;;;;;15.35;3.10;;;12.80;99.90;;;;;;2079872;28;20021;-66
2021/10/07 02:38:21;;;;;;;8.45;2.60;;;12.80;99.90;;;;;;2088175;28;20085;-66
2021/10/07 02:39:21;;;;;;;14.60;2.38;;;12.80;99.90;;;;;;2096432;28;20027;-66
2021/10/07 02:40:22;;;;;;;10.23;2.88;;;12.80;99.90;;;;;;2074024;28;20026;-66
2021/10/07 02:41:23;;;;;;;15.23;3.75;;;12.80;99.90;;;;;;2080251;28;20029;-66
2021/10/07 02:42:24;;;;;;;18.80;2.85;;;12.90;99.90;;;;;;2080230;28;20021;-65
2021/10/07 02:43:24;;;;;;;12.05;2.35;;;12.90;99.90;;;;;;2080746;28;20045;-65
2021/10/07 02:44:25;;;;;;;11.23;2.55;;;12.90;99.90;;;;;;2080570;28;20482;-66
2021/10/07 02:45:26;;;;;;;13.70;2.83;;;12.90;99.90;;;;;;2080677;28;20029;-66
2021/10/07 02:46:27;;;;;;;15.02;3.10;;;12.90;99.90;;;;;;2073806;28;20500;-66
2021/10/07 02:47:28;;;;;;;10.98;2.33;;;12.90;99.90;;;;;;2076336;28;20041;-66
2021/10/07 02:48:29;;;;;;;11.68;2.42;;;12.90;99.90;;;;;;2074808;28;20392;-66
2021/10/07 02:49:29;;;;;;;13.02;2.45;;;12.90;99.90;;;;;;2083123;28;20100;-65
2021/10/07 02:50:30;;;;;;;11.63;2.72;;;12.90;99.90;;;;;;2085138;28;20023;-66
2021/10/07 02:51:31;;;;;;;14.30;2.75;;;13.00;99.90;;;;;;2078269;28;20517;-66
2021/10/07 02:52:32;;;;;;;10.37;2.93;;;13.00;99.90;;;;;;2079677;28;20021;-65
2021/10/07 02:53:33;;;;;;;12.50;2.40;;;13.00;99.90;;;;;;2080047;28;20343;-65
2021/10/07 02:54:34;;;;;;;12.25;2.67;;;13.00;99.90;;;;;;2077578;28;21173;-65
2021/10/07 02:55:35;;;;;;;10.95;2.50;;;13.00;99.90;;;;;;2079564;28;20021;-65
2021/10/07 02:56:35;;;;;;;11.18;2.40;;;13.00;99.90;;;;;;2079693;28;20026;-65
2021/10/07 02:57:36;;;;;;;15.30;2.72;;;13.00;99.90;;;;;;2080502;28;20017;-65
2021/10/07 02:58:37;;;;;;;15.30;2.55;;;13.00;99.90;;;;;;2080730;28;20026;-65
2021/10/07 02:59:38;;;;;;;11.75;2.10;;;13.00;99.90;;;;;;2072969;28;20026;-65
2021/10/07 03:00:38;;;;;;;14.77;3.05;;;13.00;99.90;;;;;;2072716;28;20064;-65
2021/10/07 03:01:39;;;;;;;12.60;2.67;;;13.00;99.90;;;;;;2080018;28;20703;-65
2021/10/07 03:02:40;;;;;;;11.75;2.20;;;13.00;99.90;;;;;;2080473;28;20022;-65
2021/10/07 03:03:40;;;;;;;11.93;2.00;;;13.00;99.90;;;;;;2080642;28;20500;-65
2021/10/07 03:04:42;;;;;;;16.70;3.25;;;13.00;99.90;;;;;;2080621;28;20418;-66
2021/10/07 03:05:43;;;;;;;;;;;13.00;99.90;;;;;;2077982;28;20441;-65
2021/10/07 03:06:44;;;;;;;10.55;2.20;;;13.00;99.90;;;;;;2080165;28;19912;-66
2021/10/07 03:07:44;;;;;;;16.27;2.83;;;13.10;99.90;;;;;;2080207;28;20014;-65
2021/10/07 03:08:45;;;;;;;12.05;3.03;;;13.10;99.90;;;;;;2080610;28;20029;-65
2021/10/07 03:09:46;;;;;;;13.32;2.67;;;13.10;99.90;;;;;;2077390;28;20632;-65
2021/10/07 03:10:47;;;;;;;10.98;2.22;;;13.10;99.90;;;;;;2080063;28;20033;-65
2021/10/07 03:11:47;;;;;;;12.82;2.45;;;13.10;99.90;;;;;;2079447;28;20129;-65
2021/10/07 03:12:48;;;;;;;12.30;2.70;;;13.10;99.90;;;;;;2079782;28;20060;-65
2021/10/07 03:13:49;;;;;;;16.38;2.53;;;13.10;99.90;;;;;;2080629;28;20560;-65
2021/10/07 03:14:49;;;;;;;11.77;2.70;;;13.10;99.90;;;;;;2080406;28;20025;-65
2021/10/07 03:15:50;;;;;;;10.15;2.65;;;13.10;99.90;;;;;;2080682;28;20036;-65
2021/10/07 03:16:51;;;;;;;13.55;2.25;;;13.10;99.90;;;;;;2079711;28;20049;-65
2021/10/07 03:17:52;;;;;;;10.55;2.97;;;13.10;99.90;;;;;;2077389;28;20033;-65
2021/10/07 03:18:52;;;;;;;9.13;2.38;;;13.10;99.90;;;;;;2076446;28;20024;-65
2021/10/07 03:19:53;;;;;;;10.38;2.90;;;13.10;99.90;;;;;;2077014;28;20022;-65
2021/10/07 03:20:54;;;;;;;11.68;2.65;;;13.10;99.90;;;;;;2080587;28;20367;-65
2021/10/07 03:21:54;;;;;;;7.63;2.15;;;13.10;99.90;;;;;;2079641;28;20112;-65
2021/10/07 03:22:55;;;;;;;17.40;3.13;;;13.10;99.90;;;;;;2079744;28;20022;-65
2021/10/07 03:23:56;;;;;;;13.57;2.70;;;13.10;99.90;;;;;;2078517;28;20033;-65
2021/10/07 03:24:56;;;;;;;8.82;2.42;;;13.10;99.90;;;;;;2076027;28;20022;-65
2021/10/07 03:25:57;;;;;;;13.15;2.60;;;13.10;99.90;;;;;;2080115;28;20145;-65
2021/10/07 03:26:58;;;;;;;12.05;2.58;;;13.10;99.90;;;;;;2079904;28;20148;-66
2021/10/07 03:27:59;;;;;;;11.00;2.40;;;13.10;99.90;;;;;;2080340;28;20516;-65
2021/10/07 03:28:59;;;;;;;16.23;3.67;;;13.10;99.90;;;;;;2080618;28;20029;-65
2021/10/07 03:30:00;;;;;;;10.43;2.53;;;13.10;99.90;;;;;;2080330;28;20017;-65
2021/10/07 03:31:01;;;;;;;14.75;2.50;;;13.10;99.90;;;;;;2079704;28;20033;-65
2021/10/07 03:32:02;;;;;;;12.18;2.55;;;13.10;99.90;;;;;;2079609;28;20071;-65
2021/10/07 03:33:07;;;;;;;15.45;3.10;;;13.10;99.90;;;;;;2080002;28;20023;-65
2021/10/07 03:34:07;;;;;;;13.63;2.85;;;13.10;99.90;;;;;;2079507;28;20055;-65
2021/10/07 03:35:08;;;;;;;11.43;2.50;;;13.10;99.90;;;;;;2080262;28;20493;-65
2021/10/07 03:36:09;;;;;;;15.73;3.45;;;13.10;99.90;;;;;;2080447;28;20057;-66
2021/10/07 03:37:10;;;;;;;13.63;2.47;;;13.10;99.90;;;;;;2079319;28;20468;-65
2021/10/07 03:38:10;;;;;;;8.45;2.42;;;13.10;99.90;;;;;;2079807;28;20105;-65
2021/10/07 03:39:11;;;;;;;8.90;2.30;;;13.10;99.90;;;;;;2080371;28;20018;-65
2021/10/07 03:40:13;;;;;;;14.68;2.72;;;13.10;99.90;;;;;;2080439;28;20105;-65
2021/10/07 03:41:14;;;;;;;9.45;2.20;;;13.10;99.90;;;;;;2080456;28;20056;-65
2021/10/07 03:42:14;;;;;;;11.57;2.60;;;13.10;99.90;;;;;;2080149;28;20381;-65
2021/10/07 03:43:15;;;;;;;13.82;3.03;;;13.10;99.90;;;;;;2071523;28;20021;-65
2021/10/07 03:44:16;;;;;;;7.25;2.45;;;13.10;99.90;;;;;;2077667;28;20022;-65
2021/10/07 03:45:17;;;;;;;11.63;2.22;;;13.10;99.90;;;;;;2080196;28;20478;-65
2021/10/07 03:46:17;;;;;;;15.48;2.53;;;13.20;99.90;;;;;;2080431;28;20061;-65
2021/10/07 03:47:18;;;;;;;8.35;2.50;;;13.10;99.90;;;;;;2080322;28;20041;-65
2021/10/07 03:48:19;;;;;;;13.82;2.75;;;13.10;99.90;;;;;;2084095;28;20033;-65
2021/10/07 03:49:20;;;;;;;9.18;2.10;;;13.10;99.90;;;;;;2077810;28;20029;-65
2021/10/07 03:50:21;;;;;;;12.13;2.90;;;13.20;99.90;;;;;;2081722;28;20014;-66
2021/10/07 03:51:21;;;;;;;10.95;2.53;;;13.20;99.90;;;;;;2081009;28;20701;-65
2021/10/07 03:52:23;;;;;;;11.15;2.33;;;13.10;99.90;;;;;;2081069;28;20033;-65
2021/10/07 03:53:26;;;;;;;12.90;2.53;;;13.10;99.90;;;;;;2081909;28;20058;-66
2021/10/07 03:54:27;;;;;;;15.38;2.75;;;13.10;99.90;;;;;;2081591;28;20021;-65
2021/10/07 03:55:28;;;;;;;12.65;2.53;;;13.10;99.90;;;;;;2078608;28;20024;-65
2021/10/07 03:56:28;;;;;;;11.05;2.72;;;13.20;99.90;;;;;;2079921;28;20505;-65
2021/10/07 03:57:29;;;;;;;7.57;2.20;;;13.10;99.90;;;;;;2080798;28;20417;-65
2021/10/07 03:58:30;;;;;;;15.45;3.03;;;13.10;99.90;;;;;;2081964;28;20026;-65
2021/10/07 03:59:31;;;;;;;11.20;2.72;;;13.10;99.90;;;;;;2081639;28;20018;-65
2021/10/07 04:00:31;;;;;;;9.48;2.40;;;13.10;99.90;;;;;;2081974;28;20029;-65
2021/10/07 04:01:33;;;;;;;14.00;2.65;;;13.10;99.90;;;;;;2075359;28;20049;-65
2021/10/07 04:02:33;;;;;;;14.90;2.53;;;13.20;99.90;;;;;;2075848;28;20036;-66
2021/10/07 04:03:34;;;;;;;10.23;2.35;;;13.20;99.90;;;;;;2081855;28;20393;-65
2021/10/07 04:04:37;;;;;;;9.35;2.53;;;13.20;99.90;;;;;;2081204;28;20018;-65
2021/10/07 04:05:38;;;;;;;9.18;2.55;;;13.10;99.90;;;;;;2073220;28;20557;-65
2021/10/07 04:06:39;;;;;;;12.30;2.97;;;13.20;99.90;;;;;;2081233;28;20084;-66
2021/10/07 04:07:39;;;;;;;13.55;2.88;;;13.10;99.90;;;;;;2081498;28;20022;-65
2021/10/07 04:08:40;;;;;;;13.23;3.05;;;13.10;99.90;;;;;;2078670;28;20472;-65
2021/10/07 04:09:41;;;;;;;14.10;2.92;;;13.10;99.90;;;;;;2080987;28;20014;-65
2021/10/07 04:10:42;;;;;;;11.77;2.35;;;13.10;99.90;;;;;;2076648;28;20025;-65
2021/10/07 04:11:43;;;;;;;11.55;2.30;;;13.10;99.90;;;;;;2073292;28;20561;-65
2021/10/07 04:12:43;;;;;;;10.63;2.83;;;13.10;99.90;;;;;;2072430;28;20033;-65
2021/10/07 04:13:44;;;;;;;9.43;2.88;;;13.10;99.90;;;;;;2072963;28;20030;-65
2021/10/07 04:14:45;;;;;;;11.77;2.78;;;13.10;99.90;;;;;;2066794;28;20149;-65
2021/10/07 04:15:48;;;;;;;12.23;2.70;;;13.10;99.90;;;;;;2080950;28;20056;-65
2021/10/07 04:16:49;;;;;;;9.57;2.47;;;13.10;99.90;;;;;;2080913;28;20489;-65
2021/10/07 04:17:50;;;;;;;13.35;2.60;;;13.10;99.90;;;;;;2080792;28;20030;-65
2021/10/07 04:18:50;;;;;;;13.55;3.28;;;13.10;99.90;;;;;;2081002;28;20109;-65
2021/10/07 04:19:51;;;;;;;13.50;3.00;;;13.10;99.90;;;;;;2081585;28;20095;-65
2021/10/07 04:20:52;;;;;;;15.20;3.33;;;13.10;99.90;;;;;;2077898;28;20040;-65
2021/10/07 04:21:53;;;;;;;16.27;2.85;;;13.10;99.90;;;;;;2081003;28;20037;-65
2021/10/07 04:22:53;;;;;;;14.05;2.45;;;13.10;99.90;;;;;;2081296;28;20028;-65
2021/10/07 04:23:54;;;;;;;12.15;2.63;;;13.10;99.90;;;;;;2081797;28;20024;-65
2021/10/07 04:24:56;;;;;;;8.27;2.10;;;13.10;99.90;;;;;;2081702;28;20018;-66
2021/10/07 04:25:56;;;;;;;11.90;2.50;;;13.10;99.90;;;;;;2081037;28;20029;-66
2021/10/07 04:26:57;;;;;;;15.27;2.90;;;13.10;99.90;;;;;;2080720;28;20493;-66
2021/10/07 04:27:58;;;;;;;11.38;2.50;;;13.10;99.90;;;;;;2081600;28;20104;-66
2021/10/07 04:28:59;;;;;;;14.60;2.42;;;13.10;99.90;;;;;;2075441;28;20493;-65
2021/10/07 04:30:01;;;;;;;12.75;2.78;;;13.10;99.90;;;;;;2072730;28;20022;-65
2021/10/07 04:31:02;;;;;;;10.20;2.10;;;13.10;99.90;;;;;;2072726;28;20056;-65
2021/10/07 04:32:03;;;;;;;10.35;3.58;;;13.10;99.90;;;;;;2080315;28;20056;-65
2021/10/07 04:33:09;;;;;;;9.98;2.22;;;13.10;99.90;;;;;;2081410;28;20033;-65
2021/10/07 04:34:10;;;;;;;12.25;2.35;;;13.10;99.90;;;;;;2081743;28;20045;-65
2021/10/07 04:35:11;;;;;;;15.50;3.03;;;13.10;99.90;;;;;;2081439;28;20421;-65
2021/10/07 04:36:12;;;;;;;12.88;2.70;;;13.10;99.90;;;;;;2081684;28;20037;-65
2021/10/07 04:37:13;;;;;;;11.38;2.53;;;13.20;99.90;;;;;;2080507;28;20029;-66
2021/10/07 04:38:13;;;;;;;10.50;2.38;;;13.10;99.90;;;;;;2078113;28;20041;-65
2021/10/07 04:39:14;;;;;;;15.75;2.53;;;13.20;99.90;;;;;;2074048;28;20328;-65
2021/10/07 04:40:15;;;;;;;12.05;2.53;;;13.20;99.90;;;;;;2078651;28;20028;-65
2021/10/07 04:41:16;;;;;;;11.10;2.65;;;13.20;99.90;;;;;;2081395;28;20128;-66
2021/10/07 04:42:17;;;;;;;9.18;2.15;;;13.20;99.90;;;;;;2081084;28;20040;-65
2021/10/07 04:43:18;;;;;;;8.35;2.33;;;13.20;99.90;;;;;;2081326;28;20461;-65
2021/10/07 04:44:19;;;;;;;12.35;2.50;;;13.10;99.90;;;;;;2081297;28;20025;-66
2021/10/07 04:45:20;;;;;;;8.50;2.30;;;13.20;99.90;;;;;;2077182;28;20405;-65
2021/10/07 04:46:22;;;;;;;11.15;2.50;;;13.20;99.90;;;;;;2078327;28;20022;-65
2021/10/07 04:47:23;;;;;;;10.98;2.28;;;13.20;99.90;;;;;;2076021;28;20021;-66
2021/10/07 04:48:23;;;;;;;12.20;2.15;;;13.20;99.90;;;;;;2078034;28;20160;-65
2021/10/07 04:49:24;;;;;;;10.15;2.72;;;13.20;99.90;;;;;;2081885;28;20029;-65
2021/10/07 04:50:25;;;;;;;7.78;2.33;;;13.20;99.90;;;;;;2075193;28;20025;-66
2021/10/07 04:51:25;;;;;;;11.35;2.53;;;13.20;99.90;;;;;;2074836;28;20693;-65
2021/10/07 04:52:26;;;;;;;12.38;2.05;;;13.20;99.90;;;;;;2075851;28;20025;-65
2021/10/07 04:53:27;;;;;;;9.65;2.53;;;13.20;99.90;;;;;;2081497;28;20036;-65
2021/10/07 04:54:29;;;;;;;8.65;2.17;;;13.20;99.90;;;;;;2081343;28;20029;-65
2021/10/07 04:55:30;;;;;;;15.95;2.92;;;13.20;99.90;;;;;;2081247;28;20538;-65
2021/10/07 04:56:31;;;;;;;14.63;2.55;;;13.20;99.90;;;;;;2081330;28;20053;-65
2021/10/07 04:57:32;;;;;;;8.35;2.30;;;13.20;99.90;;;;;;2078404;28;20026;-65
2021/10/07 04:58:33;;;;;;;14.05;2.78;;;13.20;99.90;;;;;;2080458;28;20025;-65
2021/10/07 04:59:34;;;;;;;13.70;2.05;;;13.20;99.90;;;;;;2080412;28;20061;-65
2021/10/07 05:00:35;;;;;;;14.63;2.60;;;13.20;99.90;;;;;;2073283;28;20065;-65
2021/10/07 05:01:35;;;;;;;13.23;2.75;;;13.20;99.90;;;;;;2081101;28;20073;-65
2021/10/07 05:02:37;;;;;;;8.98;1.92;;;13.20;99.90;;;;;;2077739;28;20021;-65
2021/10/07 05:03:38;;;;;;;12.55;2.55;;;13.20;99.90;;;;;;2081157;28;20026;-65
2021/10/07 05:04:39;;;;;;;9.23;2.40;;;13.20;99.90;;;;;;2081146;28;20026;-65
2021/10/07 05:05:40;;;;;;;13.07;2.20;;;13.20;99.90;;;;;;2081459;28;20701;-65
2021/10/07 05:06:41;;;;;;;13.38;2.78;;;13.20;99.90;;;;;;2073380;28;20061;-65
2021/10/07 05:07:43;;;;;;;6.53;2.05;;;13.20;99.90;;;;;;2080131;28;20690;-65
2021/10/07 05:08:44;;;;;;;13.32;2.83;;;13.20;99.90;;;;;;2081303;28;20101;-65
2021/10/07 05:09:44;;;;;;;13.00;2.50;;;13.20;99.90;;;;;;2081202;28;20025;-65
2021/10/07 05:10:45;;;;;;;12.32;3.03;;;13.20;99.90;;;;;;2081389;28;20474;-65
2021/10/07 05:11:46;;;;;;;10.20;2.40;;;13.20;99.90;;;;;;2081251;28;20029;-65
2021/10/07 05:12:47;;;;;;;11.02;2.33;;;13.20;99.90;;;;;;2081018;28;20394;-66
2021/10/07 05:13:47;;;;;;;10.55;2.50;;;13.20;99.90;;;;;;2081309;28;20025;-65
2021/10/07 05:14:48;;;;;;;12.32;2.20;;;13.20;99.90;;;;;;2074559;28;20490;-65
2021/10/07 05:15:49;;;;;;;17.17;2.67;;;13.20;99.90;;;;;;2077941;28;20033;-66
2021/10/07 05:16:49;;;;;;;10.15;2.70;;;13.20;99.90;;;;;;2080915;28;20762;-65
2021/10/07 05:17:52;;;;;;;14.50;2.60;;;13.20;99.90;;;;;;2081053;28;20030;-66
2021/10/07 05:18:52;;;;;;;9.02;2.50;;;13.20;99.90;;;;;;2077817;28;20525;-65
2021/10/07 05:19:53;;;;;;;9.90;2.30;;;13.20;99.90;;;;;;2072255;28;20022;-66
2021/10/07 05:20:54;;;;;;;13.35;2.80;;;13.10;99.90;;;;;;2080611;28;20029;-65
2021/10/07 05:21:54;;;;;;;12.20;2.83;;;13.20;99.90;;;;;;2080495;28;20624;-65
2021/10/07 05:22:55;;;;;;;13.68;2.78;;;13.20;99.90;;;;;;2080984;28;20555;-65